sensor_id;sensor_type;location;lat;lon;timestamp;P1;durP1;ratioP1;P2;durP2;ratioP2
21675;SDS011;10999;51.332;9.458;2023-02-25T00:01:23;12.00;;;1.40;;
21675;SDS011;10999;51.332;9.458;2023-02-25T00:03:53;13.85;;;2.25;;
21675;SDS011;10999;51.332;9.458;2023-02-25T00:06:21;6.28;;;1.63;;
21675;SDS011;10999;51.332;9.458;2023-02-25T00:08:49;13.48;;;2.60;;
21675;SDS011;10999;51.332;9.458;2023-02-25T00:11:16;15.45;;;2.15;;
21675;SDS011;10999;51.332;9.458;2023-02-25T00:13:44;7.43;;;1.23;;
21675;SDS011;10999;51.332;9.458;2023-02-25T00:16:11;10.23;;;2.13;;
21675;SDS011;10999;51.332;9.458;2023-02-25T00:18:38;8.80;;;1.42;;
21675;SDS011;10999;51.332;9.458;2023-02-25T00:21:09;9.73;;;1.98;;
21675;SDS011;10999;51.332;9.458;2023-02-25T00:23:41;7.70;;;1.60;;
21675;SDS011;10999;51.332;9.458;2023-02-25T00:26:09;9.23;;;2.00;;
21675;SDS011;10999;51.332;9.458;2023-02-25T00:28:36;9.68;;;2.30;;
21675;SDS011;10999;51.332;9.458;2023-02-25T00:31:05;9.98;;;2.03;;
21675;SDS011;10999;51.332;9.458;2023-02-25T00:33:34;11.68;;;1.80;;
21675;SDS011;10999;51.332;9.458;2023-02-25T00:36:04;8.75;;;1.92;;
21675;SDS011;10999;51.332;9.458;2023-02-25T00:38:32;6.93;;;1.20;;
21675;SDS011;10999;51.332;9.458;2023-02-25T00:41:07;7.63;;;1.75;;
21675;SDS011;10999;51.332;9.458;2023-02-25T00:43:37;6.72;;;1.50;;
21675;SDS011;10999;51.332;9.458;2023-02-25T00:46:05;6.78;;;1.38;;
21675;SDS011;10999;51.332;9.458;2023-02-25T00:48:32;8.60;;;1.33;;
21675;SDS011;10999;51.332;9.458;2023-02-25T00:51:03;11.45;;;1.85;;
21675;SDS011;10999;51.332;9.458;2023-02-25T00:53:40;9.85;;;1.55;;
21675;SDS011;10999;51.332;9.458;2023-02-25T00:56:08;4.47;;;1.40;;
21675;SDS011;10999;51.332;9.458;2023-02-25T00:58:41;13.15;;;2.47;;
21675;SDS011;10999;51.332;9.458;2023-02-25T01:03:47;9.95;;;1.58;;
21675;SDS011;10999;51.332;9.458;2023-02-25T01:06:14;6.28;;;2.15;;
21675;SDS011;10999;51.332;9.458;2023-02-25T01:08:41;6.65;;;1.80;;
21675;SDS011;10999;51.332;9.458;2023-02-25T01:11:19;11.82;;;1.85;;
21675;SDS011;10999;51.332;9.458;2023-02-25T01:13:55;5.35;;;1.27;;
21675;SDS011;10999;51.332;9.458;2023-02-25T01:16:23;8.98;;;1.48;;
21675;SDS011;10999;51.332;9.458;2023-02-25T01:18:52;7.35;;;1.63;;
21675;SDS011;10999;51.332;9.458;2023-02-25T01:21:22;10.13;;;1.48;;
21675;SDS011;10999;51.332;9.458;2023-02-25T01:23:55;8.38;;;1.67;;
21675;SDS011;10999;51.332;9.458;2023-02-25T01:26:28;9.15;;;2.20;;
21675;SDS011;10999;51.332;9.458;2023-02-25T01:28:56;8.18;;;1.63;;
21675;SDS011;10999;51.332;9.458;2023-02-25T01:31:23;9.57;;;1.45;;
21675;SDS011;10999;51.332;9.458;2023-02-25T01:33:57;5.82;;;1.50;;
21675;SDS011;10999;51.332;9.458;2023-02-25T01:36:26;7.60;;;1.55;;
21675;SDS011;10999;51.332;9.458;2023-02-25T01:38:55;8.60;;;1.98;;
21675;SDS011;10999;51.332;9.458;2023-02-25T01:41:23;14.75;;;2.17;;
21675;SDS011;10999;51.332;9.458;2023-02-25T01:44:07;13.07;;;2.03;;
21675;SDS011;10999;51.332;9.458;2023-02-25T01:46:37;6.22;;;1.55;;
21675;SDS011;10999;51.332;9.458;2023-02-25T01:49:10;9.27;;;1.95;;
21675;SDS011;10999;51.332;9.458;2023-02-25T01:51:41;8.13;;;1.33;;
21675;SDS011;10999;51.332;9.458;2023-02-25T01:54:10;9.48;;;1.85;;
21675;SDS011;10999;51.332;9.458;2023-02-25T01:56:39;7.63;;;1.52;;
21675;SDS011;10999;51.332;9.458;2023-02-25T01:59:09;6.78;;;1.92;;
21675;SDS011;10999;51.332;9.458;2023-02-25T02:01:37;10.30;;;1.60;;
21675;SDS011;10999;51.332;9.458;2023-02-25T02:04:06;9.00;;;1.60;;
21675;SDS011;10999;51.332;9.458;2023-02-25T02:06:36;5.32;;;1.00;;
21675;SDS011;10999;51.332;9.458;2023-02-25T02:09:06;8.60;;;1.70;;
21675;SDS011;10999;51.332;9.458;2023-02-25T02:11:37;12.45;;;1.90;;
21675;SDS011;10999;51.332;9.458;2023-02-25T02:14:04;6.47;;;1.60;;
21675;SDS011;10999;51.332;9.458;2023-02-25T02:16:43;8.00;;;1.42;;
21675;SDS011;10999;51.332;9.458;2023-02-25T02:19:30;6.15;;;1.50;;
21675;SDS011;10999;51.332;9.458;2023-02-25T02:25:19;11.63;;;1.95;;
21675;SDS011;10999;51.332;9.458;2023-02-25T02:42:28;9.15;;;1.98;;
21675;SDS011;10999;51.332;9.458;2023-02-25T02:45:06;8.73;;;1.40;;
21675;SDS011;10999;51.332;9.458;2023-02-25T02:48:04;7.60;;;1.95;;
21675;SDS011;10999;51.332;9.458;2023-02-25T02:50:44;5.45;;;1.25;;
21675;SDS011;10999;51.332;9.458;2023-02-25T02:53:18;10.00;;;1.58;;
21675;SDS011;10999;51.332;9.458;2023-02-25T02:56:07;8.38;;;1.50;;
21675;SDS011;10999;51.332;9.458;2023-02-25T02:58:42;6.32;;;1.50;;
21675;SDS011;10999;51.332;9.458;2023-02-25T03:01:14;9.20;;;1.90;;
21675;SDS011;10999;51.332;9.458;2023-02-25T03:03:46;6.45;;;1.50;;
21675;SDS011;10999;51.332;9.458;2023-02-25T03:06:17;7.25;;;1.40;;
21675;SDS011;10999;51.332;9.458;2023-02-25T03:08:55;8.85;;;1.80;;
21675;SDS011;10999;51.332;9.458;2023-02-25T03:11:29;7.20;;;1.42;;
21675;SDS011;10999;51.332;9.458;2023-02-25T03:13:56;10.20;;;1.77;;
21675;SDS011;10999;51.332;9.458;2023-02-25T03:16:25;9.38;;;1.50;;
21675;SDS011;10999;51.332;9.458;2023-02-25T03:19:02;8.02;;;1.27;;
21675;SDS011;10999;51.332;9.458;2023-02-25T03:21:35;6.45;;;1.35;;
21675;SDS011;10999;51.332;9.458;2023-02-25T03:24:05;11.80;;;1.48;;
21675;SDS011;10999;51.332;9.458;2023-02-25T03:26:36;8.82;;;1.98;;
21675;SDS011;10999;51.332;9.458;2023-02-25T03:29:03;6.63;;;1.48;;
21675;SDS011;10999;51.332;9.458;2023-02-25T03:31:31;12.25;;;1.90;;
21675;SDS011;10999;51.332;9.458;2023-02-25T03:34:10;9.30;;;1.80;;
21675;SDS011;10999;51.332;9.458;2023-02-25T03:36:42;12.00;;;1.73;;
21675;SDS011;10999;51.332;9.458;2023-02-25T03:39:18;9.23;;;2.15;;
21675;SDS011;10999;51.332;9.458;2023-02-25T03:41:49;7.28;;;1.45;;
21675;SDS011;10999;51.332;9.458;2023-02-25T03:44:26;9.68;;;1.45;;
21675;SDS011;10999;51.332;9.458;2023-02-25T03:46:57;15.30;;;1.77;;
21675;SDS011;10999;51.332;9.458;2023-02-25T03:49:26;15.10;;;2.08;;
21675;SDS011;10999;51.332;9.458;2023-02-25T03:51:57;11.57;;;2.40;;
21675;SDS011;10999;51.332;9.458;2023-02-25T03:54:27;10.40;;;2.28;;
21675;SDS011;10999;51.332;9.458;2023-02-25T03:56:53;10.52;;;1.67;;
21675;SDS011;10999;51.332;9.458;2023-02-25T03:59:20;6.70;;;1.60;;
21675;SDS011;10999;51.332;9.458;2023-02-25T04:01:53;12.70;;;1.77;;
21675;SDS011;10999;51.332;9.458;2023-02-25T04:04:21;9.07;;;1.27;;
21675;SDS011;10999;51.332;9.458;2023-02-25T04:06:47;5.45;;;2.05;;
21675;SDS011;10999;51.332;9.458;2023-02-25T04:09:14;4.75;;;1.10;;
21675;SDS011;10999;51.332;9.458;2023-02-25T04:11:41;10.90;;;1.70;;
21675;SDS011;10999;51.332;9.458;2023-02-25T04:14:08;6.95;;;1.73;;
21675;SDS011;10999;51.332;9.458;2023-02-25T04:16:34;8.02;;;1.30;;
21675;SDS011;10999;51.332;9.458;2023-02-25T04:19:02;4.97;;;1.20;;
21675;SDS011;10999;51.332;9.458;2023-02-25T04:21:30;4.45;;;1.52;;
21675;SDS011;10999;51.332;9.458;2023-02-25T04:23:58;9.27;;;1.52;;
21675;SDS011;10999;51.332;9.458;2023-02-25T04:26:25;9.05;;;1.23;;
21675;SDS011;10999;51.332;9.458;2023-02-25T04:28:52;6.13;;;1.30;;
21675;SDS011;10999;51.332;9.458;2023-02-25T04:31:19;2.58;;;0.85;;
21675;SDS011;10999;51.332;9.458;2023-02-25T04:33:47;8.35;;;1.20;;
21675;SDS011;10999;51.332;9.458;2023-02-25T04:36:21;9.18;;;1.23;;
21675;SDS011;10999;51.332;9.458;2023-02-25T04:38:48;4.95;;;1.40;;
21675;SDS011;10999;51.332;9.458;2023-02-25T04:41:15;6.43;;;1.55;;
21675;SDS011;10999;51.332;9.458;2023-02-25T04:43:42;3.25;;;1.08;;
21675;SDS011;10999;51.332;9.458;2023-02-25T04:46:10;9.73;;;1.38;;
21675;SDS011;10999;51.332;9.458;2023-02-25T04:48:38;4.90;;;1.23;;
21675;SDS011;10999;51.332;9.458;2023-02-25T04:51:05;5.15;;;1.50;;
21675;SDS011;10999;51.332;9.458;2023-02-25T04:53:32;5.15;;;0.93;;
21675;SDS011;10999;51.332;9.458;2023-02-25T04:56:01;4.72;;;1.00;;
21675;SDS011;10999;51.332;9.458;2023-02-25T04:58:31;3.65;;;1.02;;
21675;SDS011;10999;51.332;9.458;2023-02-25T05:00:59;7.32;;;1.30;;
21675;SDS011;10999;51.332;9.458;2023-02-25T05:03:27;5.88;;;1.02;;
21675;SDS011;10999;51.332;9.458;2023-02-25T05:05:54;4.22;;;1.13;;
21675;SDS011;10999;51.332;9.458;2023-02-25T05:08:21;4.13;;;1.23;;
21675;SDS011;10999;51.332;9.458;2023-02-25T05:10:49;8.02;;;1.10;;
21675;SDS011;10999;51.332;9.458;2023-02-25T05:13:16;4.88;;;1.23;;
21675;SDS011;10999;51.332;9.458;2023-02-25T05:15:43;3.60;;;1.13;;
21675;SDS011;10999;51.332;9.458;2023-02-25T05:18:10;6.38;;;1.40;;
21675;SDS011;10999;51.332;9.458;2023-02-25T05:20:44;2.95;;;1.10;;
21675;SDS011;10999;51.332;9.458;2023-02-25T05:23:12;4.07;;;1.17;;
21675;SDS011;10999;51.332;9.458;2023-02-25T05:25:39;7.03;;;1.35;;
21675;SDS011;10999;51.332;9.458;2023-02-25T05:28:11;5.47;;;1.02;;
21675;SDS011;10999;51.332;9.458;2023-02-25T05:30:38;4.43;;;0.90;;
21675;SDS011;10999;51.332;9.458;2023-02-25T05:33:05;3.53;;;1.10;;
21675;SDS011;10999;51.332;9.458;2023-02-25T05:35:34;10.63;;;1.50;;
21675;SDS011;10999;51.332;9.458;2023-02-25T05:38:04;8.25;;;1.95;;
21675;SDS011;10999;51.332;9.458;2023-02-25T05:40:30;6.32;;;1.30;;
21675;SDS011;10999;51.332;9.458;2023-02-25T05:42:57;3.65;;;1.05;;
21675;SDS011;10999;51.332;9.458;2023-02-25T05:45:24;6.40;;;1.38;;
21675;SDS011;10999;51.332;9.458;2023-02-25T05:47:50;4.80;;;1.15;;
21675;SDS011;10999;51.332;9.458;2023-02-25T05:50:17;5.00;;;1.38;;
21675;SDS011;10999;51.332;9.458;2023-02-25T05:52:44;6.95;;;1.65;;
21675;SDS011;10999;51.332;9.458;2023-02-25T05:55:11;5.93;;;1.58;;
21675;SDS011;10999;51.332;9.458;2023-02-25T05:57:38;5.65;;;1.52;;
21675;SDS011;10999;51.332;9.458;2023-02-25T06:00:05;6.05;;;1.52;;
21675;SDS011;10999;51.332;9.458;2023-02-25T06:02:35;2.85;;;1.50;;
21675;SDS011;10999;51.332;9.458;2023-02-25T06:05:02;4.85;;;1.20;;
21675;SDS011;10999;51.332;9.458;2023-02-25T06:07:29;4.32;;;1.50;;
21675;SDS011;10999;51.332;9.458;2023-02-25T06:09:56;6.85;;;1.73;;
21675;SDS011;10999;51.332;9.458;2023-02-25T06:12:30;5.30;;;1.75;;
21675;SDS011;10999;51.332;9.458;2023-02-25T06:14:58;5.22;;;1.45;;
21675;SDS011;10999;51.332;9.458;2023-02-25T06:17:25;6.35;;;1.00;;
21675;SDS011;10999;51.332;9.458;2023-02-25T06:19:51;6.47;;;1.40;;
21675;SDS011;10999;51.332;9.458;2023-02-25T06:22:18;6.55;;;1.48;;
21675;SDS011;10999;51.332;9.458;2023-02-25T06:24:46;8.85;;;2.13;;
21675;SDS011;10999;51.332;9.458;2023-02-25T06:27:13;5.70;;;1.20;;
21675;SDS011;10999;51.332;9.458;2023-02-25T06:29:41;5.10;;;1.20;;
21675;SDS011;10999;51.332;9.458;2023-02-25T06:32:08;8.00;;;1.67;;
21675;SDS011;10999;51.332;9.458;2023-02-25T06:34:36;3.20;;;1.20;;
21675;SDS011;10999;51.332;9.458;2023-02-25T06:37:04;4.40;;;1.23;;
21675;SDS011;10999;51.332;9.458;2023-02-25T06:39:31;4.10;;;0.77;;
21675;SDS011;10999;51.332;9.458;2023-02-25T06:41:58;5.63;;;1.25;;
21675;SDS011;10999;51.332;9.458;2023-02-25T06:44:25;3.90;;;1.02;;
21675;SDS011;10999;51.332;9.458;2023-02-25T06:46:54;4.80;;;1.35;;
21675;SDS011;10999;51.332;9.458;2023-02-25T06:49:21;5.18;;;1.50;;
21675;SDS011;10999;51.332;9.458;2023-02-25T06:51:48;7.63;;;1.35;;
21675;SDS011;10999;51.332;9.458;2023-02-25T06:54:15;3.58;;;0.82;;
21675;SDS011;10999;51.332;9.458;2023-02-25T06:56:42;3.47;;;1.00;;
21675;SDS011;10999;51.332;9.458;2023-02-25T06:59:09;2.97;;;0.90;;
21675;SDS011;10999;51.332;9.458;2023-02-25T07:01:36;2.83;;;0.73;;
21675;SDS011;10999;51.332;9.458;2023-02-25T07:04:03;4.68;;;1.20;;
21675;SDS011;10999;51.332;9.458;2023-02-25T07:06:30;3.28;;;0.90;;
21675;SDS011;10999;51.332;9.458;2023-02-25T07:08:57;4.32;;;1.50;;
21675;SDS011;10999;51.332;9.458;2023-02-25T07:16:17;4.18;;;0.70;;
21675;SDS011;10999;51.332;9.458;2023-02-25T07:18:44;3.20;;;0.73;;
21675;SDS011;10999;51.332;9.458;2023-02-25T07:21:12;3.92;;;1.00;;
21675;SDS011;10999;51.332;9.458;2023-02-25T07:23:40;3.10;;;1.10;;
21675;SDS011;10999;51.332;9.458;2023-02-25T07:26:08;3.42;;;0.80;;
21675;SDS011;10999;51.332;9.458;2023-02-25T07:28:36;2.15;;;0.82;;
21675;SDS011;10999;51.332;9.458;2023-02-25T07:31:03;3.20;;;0.75;;
21675;SDS011;10999;51.332;9.458;2023-02-25T07:33:40;2.55;;;0.75;;
21675;SDS011;10999;51.332;9.458;2023-02-25T07:36:08;2.10;;;0.90;;
21675;SDS011;10999;51.332;9.458;2023-02-25T07:38:36;3.15;;;1.33;;
21675;SDS011;10999;51.332;9.458;2023-02-25T07:41:07;2.38;;;0.63;;
21675;SDS011;10999;51.332;9.458;2023-02-25T07:43:36;1.33;;;0.32;;
21675;SDS011;10999;51.332;9.458;2023-02-25T07:46:03;3.55;;;0.80;;
21675;SDS011;10999;51.332;9.458;2023-02-25T07:48:31;2.92;;;0.77;;
21675;SDS011;10999;51.332;9.458;2023-02-25T07:51:06;2.13;;;0.60;;
21675;SDS011;10999;51.332;9.458;2023-02-25T07:53:38;7.60;;;1.15;;
21675;SDS011;10999;51.332;9.458;2023-02-25T07:56:05;6.20;;;1.42;;
21675;SDS011;10999;51.332;9.458;2023-02-25T07:58:32;2.90;;;0.90;;
21675;SDS011;10999;51.332;9.458;2023-02-25T08:01:00;2.08;;;1.05;;
21675;SDS011;10999;51.332;9.458;2023-02-25T08:03:31;3.33;;;0.80;;
21675;SDS011;10999;51.332;9.458;2023-02-25T08:05:58;3.92;;;0.73;;
21675;SDS011;10999;51.332;9.458;2023-02-25T08:08:27;2.63;;;0.63;;
21675;SDS011;10999;51.332;9.458;2023-02-25T08:10:54;2.72;;;1.00;;
21675;SDS011;10999;51.332;9.458;2023-02-25T08:13:20;2.45;;;0.93;;
21675;SDS011;10999;51.332;9.458;2023-02-25T08:15:47;4.75;;;0.88;;
21675;SDS011;10999;51.332;9.458;2023-02-25T08:18:14;2.05;;;0.88;;
21675;SDS011;10999;51.332;9.458;2023-02-25T08:20:44;4.18;;;0.70;;
21675;SDS011;10999;51.332;9.458;2023-02-25T08:23:12;6.47;;;0.88;;
21675;SDS011;10999;51.332;9.458;2023-02-25T08:25:39;4.00;;;0.95;;
21675;SDS011;10999;51.332;9.458;2023-02-25T08:28:05;4.00;;;0.65;;
21675;SDS011;10999;51.332;9.458;2023-02-25T08:30:32;9.27;;;0.95;;
21675;SDS011;10999;51.332;9.458;2023-02-25T08:32:59;6.07;;;0.80;;
21675;SDS011;10999;51.332;9.458;2023-02-25T08:35:26;1.85;;;0.57;;
21675;SDS011;10999;51.332;9.458;2023-02-25T08:37:52;7.93;;;0.98;;
21675;SDS011;10999;51.332;9.458;2023-02-25T08:40:19;5.18;;;1.08;;
21675;SDS011;10999;51.332;9.458;2023-02-25T08:42:46;5.70;;;0.95;;
21675;SDS011;10999;51.332;9.458;2023-02-25T08:45:13;3.35;;;0.70;;
21675;SDS011;10999;51.332;9.458;2023-02-25T08:47:39;3.65;;;0.80;;
21675;SDS011;10999;51.332;9.458;2023-02-25T08:50:06;2.38;;;0.88;;
21675;SDS011;10999;51.332;9.458;2023-02-25T08:52:34;1.35;;;0.52;;
21675;SDS011;10999;51.332;9.458;2023-02-25T08:55:01;2.67;;;0.43;;
21675;SDS011;10999;51.332;9.458;2023-02-25T08:57:29;0.28;;;0.10;;
21675;SDS011;10999;51.332;9.458;2023-02-25T08:59:56;1.02;;;0.13;;
21675;SDS011;10999;51.332;9.458;2023-02-25T09:02:22;1.75;;;0.30;;
21675;SDS011;10999;51.332;9.458;2023-02-25T09:04:49;0.52;;;0.20;;
21675;SDS011;10999;51.332;9.458;2023-02-25T09:07:16;1.95;;;0.47;;
21675;SDS011;10999;51.332;9.458;2023-02-25T09:09:43;1.88;;;0.40;;
21675;SDS011;10999;51.332;9.458;2023-02-25T09:12:10;4.63;;;0.40;;
21675;SDS011;10999;51.332;9.458;2023-02-25T09:14:37;2.35;;;0.77;;
21675;SDS011;10999;51.332;9.458;2023-02-25T09:17:04;1.83;;;0.75;;
21675;SDS011;10999;51.332;9.458;2023-02-25T09:19:32;1.95;;;0.70;;
21675;SDS011;10999;51.332;9.458;2023-02-25T09:21:59;2.95;;;0.75;;
21675;SDS011;10999;51.332;9.458;2023-02-25T09:24:26;2.35;;;0.77;;
21675;SDS011;10999;51.332;9.458;2023-02-25T09:26:55;3.47;;;0.98;;
21675;SDS011;10999;51.332;9.458;2023-02-25T09:29:21;7.50;;;0.90;;
21675;SDS011;10999;51.332;9.458;2023-02-25T09:31:48;3.75;;;0.80;;
21675;SDS011;10999;51.332;9.458;2023-02-25T09:34:15;2.63;;;0.80;;
21675;SDS011;10999;51.332;9.458;2023-02-25T09:36:43;4.53;;;0.90;;
21675;SDS011;10999;51.332;9.458;2023-02-25T09:39:10;2.72;;;0.90;;
21675;SDS011;10999;51.332;9.458;2023-02-25T09:47:15;2.70;;;0.52;;
21675;SDS011;10999;51.332;9.458;2023-02-25T09:52:29;1.92;;;0.80;;
21675;SDS011;10999;51.332;9.458;2023-02-25T09:55:05;2.67;;;0.68;;
21675;SDS011;10999;51.332;9.458;2023-02-25T09:57:34;3.70;;;0.90;;
21675;SDS011;10999;51.332;9.458;2023-02-25T10:00:13;8.88;;;1.05;;
21675;SDS011;10999;51.332;9.458;2023-02-25T10:02:47;3.60;;;0.82;;
21675;SDS011;10999;51.332;9.458;2023-02-25T10:05:39;3.72;;;0.82;;
21675;SDS011;10999;51.332;9.458;2023-02-25T10:11:05;4.32;;;0.77;;
21675;SDS011;10999;51.332;9.458;2023-02-25T10:16:18;3.10;;;0.75;;
21675;SDS011;10999;51.332;9.458;2023-02-25T10:24:25;3.13;;;0.82;;
21675;SDS011;10999;51.332;9.458;2023-02-25T10:27:40;4.55;;;1.10;;
21675;SDS011;10999;51.332;9.458;2023-02-25T10:29:51;2.72;;;1.02;;
21675;SDS011;10999;51.332;9.458;2023-02-25T10:32:23;4.05;;;0.90;;
21675;SDS011;10999;51.332;9.458;2023-02-25T10:34:53;3.83;;;0.90;;
21675;SDS011;10999;51.332;9.458;2023-02-25T10:37:33;6.15;;;1.00;;
21675;SDS011;10999;51.332;9.458;2023-02-25T10:40:03;6.10;;;1.13;;
21675;SDS011;10999;51.332;9.458;2023-02-25T10:42:36;3.38;;;0.80;;
21675;SDS011;10999;51.332;9.458;2023-02-25T10:45:07;2.33;;;0.60;;
21675;SDS011;10999;51.332;9.458;2023-02-25T10:47:40;4.00;;;1.35;;
21675;SDS011;10999;51.332;9.458;2023-02-25T10:52:50;2.10;;;0.50;;
21675;SDS011;10999;51.332;9.458;2023-02-25T10:55:26;5.30;;;1.27;;
21675;SDS011;10999;51.332;9.458;2023-02-25T10:57:55;3.55;;;0.82;;
21675;SDS011;10999;51.332;9.458;2023-02-25T11:00:26;10.93;;;1.80;;
21675;SDS011;10999;51.332;9.458;2023-02-25T11:02:54;4.13;;;0.90;;
21675;SDS011;10999;51.332;9.458;2023-02-25T11:08:04;2.40;;;0.73;;
21675;SDS011;10999;51.332;9.458;2023-02-25T11:10:33;2.53;;;0.70;;
21675;SDS011;10999;51.332;9.458;2023-02-25T11:13:00;3.63;;;0.85;;
21675;SDS011;10999;51.332;9.458;2023-02-25T11:21:12;7.15;;;0.90;;
21675;SDS011;10999;51.332;9.458;2023-02-25T11:23:46;3.40;;;0.80;;
21675;SDS011;10999;51.332;9.458;2023-02-25T11:26:15;1.65;;;0.40;;
21675;SDS011;10999;51.332;9.458;2023-02-25T11:28:52;1.70;;;0.40;;
21675;SDS011;10999;51.332;9.458;2023-02-25T11:31:22;5.35;;;0.60;;
21675;SDS011;10999;51.332;9.458;2023-02-25T11:33:57;3.63;;;0.55;;
21675;SDS011;10999;51.332;9.458;2023-02-25T11:36:36;3.55;;;0.60;;
21675;SDS011;10999;51.332;9.458;2023-02-25T11:39:23;4.68;;;0.50;;
21675;SDS011;10999;51.332;9.458;2023-02-25T11:41:56;3.47;;;0.90;;
21675;SDS011;10999;51.332;9.458;2023-02-25T11:44:43;5.85;;;0.73;;
21675;SDS011;10999;51.332;9.458;2023-02-25T11:47:26;4.85;;;0.43;;
21675;SDS011;10999;51.332;9.458;2023-02-25T11:50:05;2.08;;;0.50;;
21675;SDS011;10999;51.332;9.458;2023-02-25T11:52:48;1.10;;;0.32;;
21675;SDS011;10999;51.332;9.458;2023-02-25T12:01:21;1.75;;;0.43;;
21675;SDS011;10999;51.332;9.458;2023-02-25T12:10:01;3.65;;;0.43;;
21675;SDS011;10999;51.332;9.458;2023-02-25T12:21:05;4.65;;;0.68;;
21675;SDS011;10999;51.332;9.458;2023-02-25T12:32:20;2.67;;;0.57;;
21675;SDS011;10999;51.332;9.458;2023-02-25T12:35:13;4.35;;;0.75;;
21675;SDS011;10999;51.332;9.458;2023-02-25T12:41:15;4.45;;;0.52;;
21675;SDS011;10999;51.332;9.458;2023-02-25T12:44:09;2.58;;;0.57;;
21675;SDS011;10999;51.332;9.458;2023-02-25T12:49:55;3.47;;;0.60;;
21675;SDS011;10999;51.332;9.458;2023-02-25T12:52:36;3.75;;;0.90;;
21675;SDS011;10999;51.332;9.458;2023-02-25T12:55:24;2.42;;;0.75;;
21675;SDS011;10999;51.332;9.458;2023-02-25T13:04:13;4.25;;;0.68;;
21675;SDS011;10999;51.332;9.458;2023-02-25T13:07:06;3.28;;;0.77;;
21675;SDS011;10999;51.332;9.458;2023-02-25T13:15:31;2.63;;;1.00;;
21675;SDS011;10999;51.332;9.458;2023-02-25T13:18:39;1.88;;;0.88;;
21675;SDS011;10999;51.332;9.458;2023-02-25T13:21:26;3.33;;;1.10;;
21675;SDS011;10999;51.332;9.458;2023-02-25T13:24:16;6.38;;;1.23;;
21675;SDS011;10999;51.332;9.458;2023-02-25T13:27:11;1.95;;;0.63;;
21675;SDS011;10999;51.332;9.458;2023-02-25T13:30:14;4.53;;;1.23;;
21675;SDS011;10999;51.332;9.458;2023-02-25T13:33:10;4.47;;;0.70;;
21675;SDS011;10999;51.332;9.458;2023-02-25T13:35:52;4.30;;;1.00;;
21675;SDS011;10999;51.332;9.458;2023-02-25T13:42:02;2.33;;;0.90;;
21675;SDS011;10999;51.332;9.458;2023-02-25T13:47:55;3.08;;;0.80;;
21675;SDS011;10999;51.332;9.458;2023-02-25T14:02:00;5.07;;;1.23;;
21675;SDS011;10999;51.332;9.458;2023-02-25T14:04:51;1.58;;;0.70;;
21675;SDS011;10999;51.332;9.458;2023-02-25T14:10:15;2.83;;;0.98;;
21675;SDS011;10999;51.332;9.458;2023-02-25T14:19:01;2.33;;;0.60;;
21675;SDS011;10999;51.332;9.458;2023-02-25T14:21:59;2.10;;;0.60;;
21675;SDS011;10999;51.332;9.458;2023-02-25T14:27:58;2.25;;;0.90;;
21675;SDS011;10999;51.332;9.458;2023-02-25T14:33:12;1.67;;;0.52;;
21675;SDS011;10999;51.332;9.458;2023-02-25T14:36:01;3.03;;;0.60;;
21675;SDS011;10999;51.332;9.458;2023-02-25T14:44:13;1.95;;;0.65;;
21675;SDS011;10999;51.332;9.458;2023-02-25T14:46:51;3.08;;;1.15;;
21675;SDS011;10999;51.332;9.458;2023-02-25T14:49:32;5.45;;;1.05;;
21675;SDS011;10999;51.332;9.458;2023-02-25T14:52:18;1.25;;;0.43;;
21675;SDS011;10999;51.332;9.458;2023-02-25T14:58:06;2.28;;;0.60;;
21675;SDS011;10999;51.332;9.458;2023-02-25T15:04:08;1.15;;;0.25;;
21675;SDS011;10999;51.332;9.458;2023-02-25T15:07:16;4.65;;;0.80;;
21675;SDS011;10999;51.332;9.458;2023-02-25T15:10:12;3.63;;;0.77;;
21675;SDS011;10999;51.332;9.458;2023-02-25T15:12:58;4.05;;;0.90;;
21675;SDS011;10999;51.332;9.458;2023-02-25T15:20:47;1.27;;;0.50;;
21675;SDS011;10999;51.332;9.458;2023-02-25T15:23:15;1.77;;;0.68;;
21675;SDS011;10999;51.332;9.458;2023-02-25T15:25:49;1.35;;;0.40;;
21675;SDS011;10999;51.332;9.458;2023-02-25T15:28:37;0.68;;;0.40;;
21675;SDS011;10999;51.332;9.458;2023-02-25T15:31:25;1.33;;;0.40;;
21675;SDS011;10999;51.332;9.458;2023-02-25T15:34:38;1.40;;;0.55;;
21675;SDS011;10999;51.332;9.458;2023-02-25T15:36:46;2.15;;;0.57;;
21675;SDS011;10999;51.332;9.458;2023-02-25T15:42:07;2.80;;;0.60;;
21675;SDS011;10999;51.332;9.458;2023-02-25T15:44:38;2.55;;;0.57;;
21675;SDS011;10999;51.332;9.458;2023-02-25T15:49:52;4.50;;;1.00;;
21675;SDS011;10999;51.332;9.458;2023-02-25T15:55:34;1.02;;;0.60;;
21675;SDS011;10999;51.332;9.458;2023-02-25T15:58:09;1.65;;;0.60;;
21675;SDS011;10999;51.332;9.458;2023-02-25T16:11:29;1.20;;;0.43;;
21675;SDS011;10999;51.332;9.458;2023-02-25T16:14:21;2.45;;;0.70;;
21675;SDS011;10999;51.332;9.458;2023-02-25T16:19:56;1.77;;;0.50;;
21675;SDS011;10999;51.332;9.458;2023-02-25T16:22:29;1.85;;;0.50;;
21675;SDS011;10999;51.332;9.458;2023-02-25T16:24:57;1.23;;;0.40;;
21675;SDS011;10999;51.332;9.458;2023-02-25T16:30:10;0.98;;;0.38;;
21675;SDS011;10999;51.332;9.458;2023-02-25T16:33:02;1.98;;;0.65;;
21675;SDS011;10999;51.332;9.458;2023-02-25T16:35:40;1.85;;;0.80;;
21675;SDS011;10999;51.332;9.458;2023-02-25T16:41:27;1.80;;;0.57;;
21675;SDS011;10999;51.332;9.458;2023-02-25T16:44:03;2.50;;;0.70;;
21675;SDS011;10999;51.332;9.458;2023-02-25T16:46:32;2.78;;;0.77;;
21675;SDS011;10999;51.332;9.458;2023-02-25T16:49:01;3.83;;;0.82;;
21675;SDS011;10999;51.332;9.458;2023-02-25T16:51:40;2.05;;;0.73;;
21675;SDS011;10999;51.332;9.458;2023-02-25T16:57:16;2.80;;;0.82;;
21675;SDS011;10999;51.332;9.458;2023-02-25T16:59:47;3.72;;;1.00;;
21675;SDS011;10999;51.332;9.458;2023-02-25T17:04:46;2.40;;;0.73;;
21675;SDS011;10999;51.332;9.458;2023-02-25T17:09:57;2.70;;;0.70;;
21675;SDS011;10999;51.332;9.458;2023-02-25T17:12:36;1.23;;;0.52;;
21675;SDS011;10999;51.332;9.458;2023-02-25T17:15:15;1.85;;;0.60;;
21675;SDS011;10999;51.332;9.458;2023-02-25T17:17:44;2.20;;;0.63;;
21675;SDS011;10999;51.332;9.458;2023-02-25T17:20:16;3.35;;;0.88;;
21675;SDS011;10999;51.332;9.458;2023-02-25T17:22:52;1.95;;;0.60;;
21675;SDS011;10999;51.332;9.458;2023-02-25T17:25:22;3.78;;;0.90;;
21675;SDS011;10999;51.332;9.458;2023-02-25T17:28:06;1.98;;;0.80;;
21675;SDS011;10999;51.332;9.458;2023-02-25T17:30:42;5.00;;;1.25;;
21675;SDS011;10999;51.332;9.458;2023-02-25T17:33:19;3.47;;;1.35;;
21675;SDS011;10999;51.332;9.458;2023-02-25T17:35:51;5.95;;;1.95;;
21675;SDS011;10999;51.332;9.458;2023-02-25T17:38:24;6.28;;;1.05;;
21675;SDS011;10999;51.332;9.458;2023-02-25T17:40:54;3.53;;;1.23;;
21675;SDS011;10999;51.332;9.458;2023-02-25T17:43:25;2.00;;;0.82;;
21675;SDS011;10999;51.332;9.458;2023-02-25T17:45:59;1.63;;;0.70;;
21675;SDS011;10999;51.332;9.458;2023-02-25T17:48:50;3.60;;;1.00;;
21675;SDS011;10999;51.332;9.458;2023-02-25T17:51:26;2.88;;;1.00;;
21675;SDS011;10999;51.332;9.458;2023-02-25T17:54:02;2.45;;;1.05;;
21675;SDS011;10999;51.332;9.458;2023-02-25T17:56:32;3.47;;;1.40;;
21675;SDS011;10999;51.332;9.458;2023-02-25T17:59:02;4.97;;;1.10;;
21675;SDS011;10999;51.332;9.458;2023-02-25T18:04:49;3.25;;;0.90;;
21675;SDS011;10999;51.332;9.458;2023-02-25T18:07:31;4.07;;;1.05;;
21675;SDS011;10999;51.332;9.458;2023-02-25T18:09:58;4.90;;;1.05;;
21675;SDS011;10999;51.332;9.458;2023-02-25T18:15:01;2.10;;;0.82;;
21675;SDS011;10999;51.332;9.458;2023-02-25T18:17:50;2.05;;;0.77;;
21675;SDS011;10999;51.332;9.458;2023-02-25T18:20:25;6.63;;;1.30;;
21675;SDS011;10999;51.332;9.458;2023-02-25T18:23:02;4.03;;;0.90;;
21675;SDS011;10999;51.332;9.458;2023-02-25T18:25:34;2.28;;;0.90;;
21675;SDS011;10999;51.332;9.458;2023-02-25T18:28:10;3.45;;;1.10;;
21675;SDS011;10999;51.332;9.458;2023-02-25T18:30:39;4.40;;;1.50;;
21675;SDS011;10999;51.332;9.458;2023-02-25T18:33:06;4.15;;;1.50;;